sensor_id;sensor_type;location;lat;lon;timestamp;pressure;altitude;pressure_sealevel;temperature
76009;BMP280;64700;52.130;21.270;2024-02-21T00:00:16;101012.25;;;20.49
76009;BMP280;64700;52.130;21.270;2024-02-21T00:02:42;101020.09;;;20.47
76009;BMP280;64700;52.130;21.270;2024-02-21T00:05:07;101020.84;;;20.47
76009;BMP280;64700;52.130;21.270;2024-02-21T00:07:32;101023.25;;;20.45
76009;BMP280;64700;52.130;21.270;2024-02-21T00:09:57;101013.59;;;20.44
76009;BMP280;64700;52.130;21.270;2024-02-21T00:12:23;101017.81;;;20.45
76009;BMP280;64700;52.130;21.270;2024-02-21T00:14:48;101020.53;;;20.45
76009;BMP280;64700;52.130;21.270;2024-02-21T00:17:13;101021.00;;;20.44
76009;BMP280;64700;52.130;21.270;2024-02-21T00:19:38;101012.84;;;20.44
76009;BMP280;64700;52.130;21.270;2024-02-21T00:22:03;101014.66;;;20.47
76009;BMP280;64700;52.130;21.270;2024-02-21T00:24:29;101001.53;;;20.45
76009;BMP280;64700;52.130;21.270;2024-02-21T00:26:54;101005.91;;;20.43
76009;BMP280;64700;52.130;21.270;2024-02-21T00:29:19;101006.66;;;20.43
76009;BMP280;64700;52.130;21.270;2024-02-21T00:31:44;101008.16;;;20.44
76009;BMP280;64700;52.130;21.270;2024-02-21T00:34:10;101008.16;;;20.44
76009;BMP280;64700;52.130;21.270;2024-02-21T00:36:36;101009.38;;;20.43
76009;BMP280;64700;52.130;21.270;2024-02-21T00:39:01;101007.09;;;20.42
76009;BMP280;64700;52.130;21.270;2024-02-21T00:41:26;101009.81;;;20.42
76009;BMP280;64700;52.130;21.270;2024-02-21T00:43:51;101002.13;;;20.40
76009;BMP280;64700;52.130;21.270;2024-02-21T00:46:16;101002.88;;;20.41
76009;BMP280;64700;52.130;21.270;2024-02-21T00:48:42;101002.44;;;20.42
76009;BMP280;64700;52.130;21.270;2024-02-21T00:51:07;101003.19;;;20.43
76009;BMP280;64700;52.130;21.270;2024-02-21T00:53:32;100997.44;;;20.41
76009;BMP280;64700;52.130;21.270;2024-02-21T00:55:57;100994.72;;;20.41
76009;BMP280;64700;52.130;21.270;2024-02-21T00:58:22;100983.09;;;20.40
76009;BMP280;64700;52.130;21.270;2024-02-21T01:00:48;100983.84;;;20.41
76009;BMP280;64700;52.130;21.270;2024-02-21T01:03:13;100991.72;;;20.39
76009;BMP280;64700;52.130;21.270;2024-02-21T01:05:39;100983.25;;;20.37
76009;BMP280;64700;52.130;21.270;2024-02-21T01:08:04;100986.28;;;20.39
76009;BMP280;64700;52.130;21.270;2024-02-21T01:10:29;100989.28;;;20.41
76009;BMP280;64700;52.130;21.270;2024-02-21T01:12:55;100976.19;;;20.39
76009;BMP280;64700;52.130;21.270;2024-02-21T01:15:20;100974.34;;;20.36
76009;BMP280;64700;52.130;21.270;2024-02-21T01:17:45;100971.19;;;20.38
76009;BMP280;64700;52.130;21.270;2024-02-21T01:20:10;100968.91;;;20.36
76009;BMP280;64700;52.130;21.270;2024-02-21T01:22:36;100971.19;;;20.38
76009;BMP280;64700;52.130;21.270;2024-02-21T01:25:01;100962.28;;;20.37
76009;BMP280;64700;52.130;21.270;2024-02-21T01:27:26;100966.19;;;20.36
76009;BMP280;64700;52.130;21.270;2024-02-21T01:29:51;100966.19;;;20.36
76009;BMP280;64700;52.130;21.270;2024-02-21T01:32:16;100962.75;;;20.36
76009;BMP280;64700;52.130;21.270;2024-02-21T01:34:42;100968.19;;;20.36
76009;BMP280;64700;52.130;21.270;2024-02-21T01:37:07;100962.00;;;20.35
76009;BMP280;64700;52.130;21.270;2024-02-21T01:39:32;100963.94;;;20.35
76009;BMP280;64700;52.130;21.270;2024-02-21T01:41:58;100957.75;;;20.34
76009;BMP280;64700;52.130;21.270;2024-02-21T01:44:23;100951.56;;;20.34
76009;BMP280;64700;52.130;21.270;2024-02-21T01:46:48;100962.44;;;20.34
76009;BMP280;64700;52.130;21.270;2024-02-21T01:49:14;100957.41;;;20.32
76009;BMP280;64700;52.130;21.270;2024-02-21T01:51:39;100961.63;;;20.33
76009;BMP280;64700;52.130;21.270;2024-02-21T01:54:05;100952.72;;;20.33
76009;BMP280;64700;52.130;21.270;2024-02-21T01:56:30;100947.78;;;20.31
76009;BMP280;64700;52.130;21.270;2024-02-21T01:58:55;100955.44;;;20.33
76009;BMP280;64700;52.130;21.270;2024-02-21T02:01:21;100950.50;;;20.31
76009;BMP280;64700;52.130;21.270;2024-02-21T02:03:46;100953.19;;;20.31
76009;BMP280;64700;52.130;21.270;2024-02-21T02:06:11;100945.50;;;20.30
76009;BMP280;64700;52.130;21.270;2024-02-21T02:08:37;100951.69;;;20.30
76009;BMP280;64700;52.130;21.270;2024-02-21T02:11:02;100946.69;;;20.29
76009;BMP280;64700;52.130;21.270;2024-02-21T02:13:28;100942.47;;;20.28
76009;BMP280;64700;52.130;21.270;2024-02-21T02:15:54;100952.59;;;20.27
76009;BMP280;64700;52.130;21.270;2024-02-21T02:18:19;100951.06;;;20.26
76009;BMP280;64700;52.130;21.270;2024-02-21T02:20:45;100946.41;;;20.27
76009;BMP280;64700;52.130;21.270;2024-02-21T02:23:11;100944.56;;;20.24
76009;BMP280;64700;52.130;21.270;2024-02-21T02:25:37;100951.84;;;20.27
76009;BMP280;64700;52.130;21.270;2024-02-21T02:28:08;100951.53;;;20.25
76009;BMP280;64700;52.130;21.270;2024-02-21T02:30:33;100948.81;;;20.25
76009;BMP280;64700;52.130;21.270;2024-02-21T02:32:59;100940.38;;;20.23
76009;BMP280;64700;52.130;21.270;2024-02-21T02:35:25;100948.97;;;20.21
76009;BMP280;64700;52.130;21.270;2024-02-21T02:37:50;100937.78;;;20.19
76009;BMP280;64700;52.130;21.270;2024-02-21T02:40:16;100933.41;;;20.22
76009;BMP280;64700;52.130;21.270;2024-02-21T02:42:41;100943.97;;;20.20
76009;BMP280;64700;52.130;21.270;2024-02-21T02:45:06;100936.56;;;20.20
76009;BMP280;64700;52.130;21.270;2024-02-21T02:47:32;100938.53;;;20.20
76009;BMP280;64700;52.130;21.270;2024-02-21T02:49:57;100938.53;;;20.20
76009;BMP280;64700;52.130;21.270;2024-02-21T02:52:22;100932.78;;;20.18
76009;BMP280;64700;52.130;21.270;2024-02-21T02:54:47;100932.78;;;20.18
76009;BMP280;64700;52.130;21.270;2024-02-21T02:57:16;100927.34;;;20.18
76009;BMP280;64700;52.130;21.270;2024-02-21T02:59:42;100928.09;;;20.18
76009;BMP280;64700;52.130;21.270;2024-02-21T03:02:07;100929.00;;;20.15
76009;BMP280;64700;52.130;21.270;2024-02-21T03:04:32;100932.47;;;20.16
76009;BMP280;64700;52.130;21.270;2024-02-21T03:06:58;100923.56;;;20.15
76009;BMP280;64700;52.130;21.270;2024-02-21T03:09:23;100939.13;;;20.15
76009;BMP280;64700;52.130;21.270;2024-02-21T03:11:48;100937.91;;;20.16
76009;BMP280;64700;52.130;21.270;2024-02-21T03:14:13;100926.28;;;20.15
76009;BMP280;64700;52.130;21.270;2024-02-21T03:16:38;100928.25;;;20.15
76009;BMP280;64700;52.130;21.270;2024-02-21T03:19:04;100929.75;;;20.16
76009;BMP280;64700;52.130;21.270;2024-02-21T03:21:29;100930.97;;;20.15
76009;BMP280;64700;52.130;21.270;2024-02-21T03:23:54;100929.47;;;20.14
76009;BMP280;64700;52.130;21.270;2024-02-21T03:26:19;100935.66;;;20.14
76009;BMP280;64700;52.130;21.270;2024-02-21T03:28:44;100936.09;;;20.13
76009;BMP280;64700;52.130;21.270;2024-02-21T03:31:11;100930.34;;;20.11
76009;BMP280;64700;52.130;21.270;2024-02-21T03:33:37;100929.47;;;20.14
76009;BMP280;64700;52.130;21.270;2024-02-21T03:36:02;100936.53;;;20.11
76009;BMP280;64700;52.130;21.270;2024-02-21T03:38:28;100933.06;;;20.11
76009;BMP280;64700;52.130;21.270;2024-02-21T03:40:53;100934.88;;;20.14
76009;BMP280;64700;52.130;21.270;2024-02-21T03:43:19;100934.56;;;20.12
76009;BMP280;64700;52.130;21.270;2024-02-21T03:45:44;100930.34;;;20.11
76009;BMP280;64700;52.130;21.270;2024-02-21T03:48:09;100929.59;;;20.10
76009;BMP280;64700;52.130;21.270;2024-02-21T03:50:34;100925.81;;;20.07
76009;BMP280;64700;52.130;21.270;2024-02-21T03:52:59;100930.03;;;20.08
76009;BMP280;64700;52.130;21.270;2024-02-21T03:55:25;100925.06;;;20.07
76009;BMP280;64700;52.130;21.270;2024-02-21T03:57:50;100927.78;;;20.07
76009;BMP280;64700;52.130;21.270;2024-02-21T04:00:15;100917.66;;;20.07
76009;BMP280;64700;52.130;21.270;2024-02-21T04:02:41;100925.81;;;20.07
76009;BMP280;64700;52.130;21.270;2024-02-21T04:05:06;100919.19;;;20.08
76009;BMP280;64700;52.130;21.270;2024-02-21T04:07:35;100917.66;;;20.07
76009;BMP280;64700;52.130;21.270;2024-02-21T04:10:01;100915.44;;;20.06
76009;BMP280;64700;52.130;21.270;2024-02-21T04:12:26;100918.88;;;20.06
76009;BMP280;64700;52.130;21.270;2024-02-21T04:14:51;100923.56;;;20.06
76009;BMP280;64700;52.130;21.270;2024-02-21T04:17:16;100921.59;;;20.06
76009;BMP280;64700;52.130;21.270;2024-02-21T04:19:42;100922.06;;;20.05
76009;BMP280;64700;52.130;21.270;2024-02-21T04:22:07;100922.06;;;20.05
76009;BMP280;64700;52.130;21.270;2024-02-21T04:24:32;100924.00;;;20.04
76009;BMP280;64700;52.130;21.270;2024-02-21T04:26:57;100916.28;;;20.03
76009;BMP280;64700;52.130;21.270;2024-02-21T04:29:22;100910.44;;;20.04
76009;BMP280;64700;52.130;21.270;2024-02-21T04:31:48;100924.00;;;20.04
76009;BMP280;64700;52.130;21.270;2024-02-21T04:34:13;100924.00;;;20.04
76009;BMP280;64700;52.130;21.270;2024-02-21T04:36:38;100918.22;;;20.02
76009;BMP280;64700;52.130;21.270;2024-02-21T04:39:04;100921.69;;;20.03
76009;BMP280;64700;52.130;21.270;2024-02-21T04:41:29;100921.69;;;20.03
76009;BMP280;64700;52.130;21.270;2024-02-21T04:43:54;100914.03;;;20.01
76009;BMP280;64700;52.130;21.270;2024-02-21T04:46:19;100907.38;;;20.02
76009;BMP280;64700;52.130;21.270;2024-02-21T04:48:44;100905.41;;;20.03
76009;BMP280;64700;52.130;21.270;2024-02-21T04:51:11;100905.13;;;20.01
76009;BMP280;64700;52.130;21.270;2024-02-21T04:53:36;100913.28;;;20.01
76009;BMP280;64700;52.130;21.270;2024-02-21T04:56:01;100911.31;;;20.01
76009;BMP280;64700;52.130;21.270;2024-02-21T04:58:27;100902.84;;;19.99
76009;BMP280;64700;52.130;21.270;2024-02-21T05:00:52;100900.91;;;20.00
76009;BMP280;64700;52.130;21.270;2024-02-21T05:03:18;100908.88;;;20.03
76009;BMP280;64700;52.130;21.270;2024-02-21T05:05:43;100903.81;;;20.05
76009;BMP280;64700;52.130;21.270;2024-02-21T05:08:09;100909.25;;;20.05
76009;BMP280;64700;52.130;21.270;2024-02-21T05:10:35;100906.53;;;20.05
76009;BMP280;64700;52.130;21.270;2024-02-21T05:13:00;100902.91;;;20.08
76009;BMP280;64700;52.130;21.270;2024-02-21T05:15:25;100903.34;;;20.07
76009;BMP280;64700;52.130;21.270;2024-02-21T05:17:51;100900.19;;;20.08
76009;BMP280;64700;52.130;21.270;2024-02-21T05:20:16;100896.28;;;20.10
76009;BMP280;64700;52.130;21.270;2024-02-21T05:22:41;100910.59;;;20.10
76009;BMP280;64700;52.130;21.270;2024-02-21T05:25:07;100902.00;;;20.12
76009;BMP280;64700;52.130;21.270;2024-02-21T05:27:32;100902.00;;;20.12
76009;BMP280;64700;52.130;21.270;2024-02-21T05:29:57;100902.75;;;20.12
76009;BMP280;64700;52.130;21.270;2024-02-21T05:32:23;100905.03;;;20.14
76009;BMP280;64700;52.130;21.270;2024-02-21T05:34:48;100905.78;;;20.14
76009;BMP280;64700;52.130;21.270;2024-02-21T05:37:14;100906.53;;;20.15
76009;BMP280;64700;52.130;21.270;2024-02-21T05:39:40;100904.09;;;20.17
76009;BMP280;64700;52.130;21.270;2024-02-21T05:42:05;100898.69;;;20.17
76009;BMP280;64700;52.130;21.270;2024-02-21T05:44:31;100898.25;;;20.18
76009;BMP280;64700;52.130;21.270;2024-02-21T05:46:56;100897.47;;;20.18
76009;BMP280;64700;52.130;21.270;2024-02-21T05:49:21;100899.75;;;20.19
76009;BMP280;64700;52.130;21.270;2024-02-21T05:51:46;100899.31;;;20.21
76009;BMP280;64700;52.130;21.270;2024-02-21T05:54:12;100898.88;;;20.22
76009;BMP280;64700;52.130;21.270;2024-02-21T05:56:37;100896.16;;;20.22
76009;BMP280;64700;52.130;21.270;2024-02-21T05:59:02;100905.81;;;20.23
76009;BMP280;64700;52.130;21.270;2024-02-21T06:01:27;100912.31;;;20.26
76009;BMP280;64700;52.130;21.270;2024-02-21T06:03:53;100903.41;;;20.25
76009;BMP280;64700;52.130;21.270;2024-02-21T06:06:18;100900.25;;;20.27
76009;BMP280;64700;52.130;21.270;2024-02-21T06:08:43;100895.41;;;20.31
76009;BMP280;64700;52.130;21.270;2024-02-21T06:11:08;100892.22;;;20.32
76009;BMP280;64700;52.130;21.270;2024-02-21T06:13:37;100889.84;;;20.34
76009;BMP280;64700;52.130;21.270;2024-02-21T06:16:03;100892.84;;;20.36
76009;BMP280;64700;52.130;21.270;2024-02-21T06:18:28;100896.47;;;20.33
76009;BMP280;64700;52.130;21.270;2024-02-21T06:20:53;100895.69;;;20.33
76009;BMP280;64700;52.130;21.270;2024-02-21T06:23:18;100881.34;;;20.32
76009;BMP280;64700;52.130;21.270;2024-02-21T06:25:44;100892.69;;;20.31
76009;BMP280;64700;52.130;21.270;2024-02-21T06:28:09;100883.78;;;20.30
76009;BMP280;64700;52.130;21.270;2024-02-21T06:30:34;100883.78;;;20.30
76009;BMP280;64700;52.130;21.270;2024-02-21T06:33:00;100884.84;;;20.33
76009;BMP280;64700;52.130;21.270;2024-02-21T06:35:25;100877.88;;;20.32
76009;BMP280;64700;52.130;21.270;2024-02-21T06:37:51;100886.03;;;20.32
76009;BMP280;64700;52.130;21.270;2024-02-21T06:40:23;100890.72;;;20.31
76009;BMP280;64700;52.130;21.270;2024-02-21T06:42:48;100897.38;;;20.30
76009;BMP280;64700;52.130;21.270;2024-02-21T06:45:13;100893.91;;;20.30
76009;BMP280;64700;52.130;21.270;2024-02-21T06:47:38;100887.25;;;20.31
76009;BMP280;64700;52.130;21.270;2024-02-21T06:50:04;100883.78;;;20.30
76009;BMP280;64700;52.130;21.270;2024-02-21T06:52:29;100890.72;;;20.31
76009;BMP280;64700;52.130;21.270;2024-02-21T06:54:55;100893.44;;;20.31
76009;BMP280;64700;52.130;21.270;2024-02-21T06:57:22;100892.69;;;20.31
76009;BMP280;64700;52.130;21.270;2024-02-21T06:59:47;100881.06;;;20.30
76009;BMP280;64700;52.130;21.270;2024-02-21T07:02:12;100887.25;;;20.31
76009;BMP280;64700;52.130;21.270;2024-02-21T07:04:38;100885.75;;;20.30
76009;BMP280;64700;52.130;21.270;2024-02-21T07:07:03;100882.72;;;20.28
76009;BMP280;64700;52.130;21.270;2024-02-21T07:09:28;100890.41;;;20.29
76009;BMP280;64700;52.130;21.270;2024-02-21T07:11:56;100884.53;;;20.31
76009;BMP280;64700;52.130;21.270;2024-02-21T07:14:21;100885.75;;;20.30
76009;BMP280;64700;52.130;21.270;2024-02-21T07:16:47;100884.22;;;20.29
76009;BMP280;64700;52.130;21.270;2024-02-21T07:19:12;100887.69;;;20.29
76009;BMP280;64700;52.130;21.270;2024-02-21T07:21:37;100878.03;;;20.28
76009;BMP280;64700;52.130;21.270;2024-02-21T07:24:03;100882.28;;;20.29
76009;BMP280;64700;52.130;21.270;2024-02-21T07:26:28;100880.75;;;20.28
76009;BMP280;64700;52.130;21.270;2024-02-21T07:28:53;100883.94;;;20.27
76009;BMP280;64700;52.130;21.270;2024-02-21T07:31:19;100876.56;;;20.27
76009;BMP280;64700;52.130;21.270;2024-02-21T07:33:44;100882.72;;;20.28
76009;BMP280;64700;52.130;21.270;2024-02-21T07:36:10;100880.00;;;20.28
76009;BMP280;64700;52.130;21.270;2024-02-21T07:38:36;100876.56;;;20.27
76009;BMP280;64700;52.130;21.270;2024-02-21T07:41:01;100871.84;;;20.28
76009;BMP280;64700;52.130;21.270;2024-02-21T07:43:26;100882.00;;;20.27
76009;BMP280;64700;52.130;21.270;2024-02-21T07:45:52;100875.03;;;20.26
76009;BMP280;64700;52.130;21.270;2024-02-21T07:48:18;100864.19;;;20.26
76009;BMP280;64700;52.130;21.270;2024-02-21T07:50:44;100864.63;;;20.25
76009;BMP280;64700;52.130;21.270;2024-02-21T07:53:09;100868.09;;;20.25
76009;BMP280;64700;52.130;21.270;2024-02-21T07:55:34;100872.31;;;20.26
76009;BMP280;64700;52.130;21.270;2024-02-21T07:57:59;100865.69;;;20.27
76009;BMP280;64700;52.130;21.270;2024-02-21T08:00:24;100866.91;;;20.26
76009;BMP280;64700;52.130;21.270;2024-02-21T08:02:50;100858.00;;;20.26
76009;BMP280;64700;52.130;21.270;2024-02-21T08:05:15;100858.00;;;20.26
76009;BMP280;64700;52.130;21.270;2024-02-21T08:07:40;100854.50;;;20.25
76009;BMP280;64700;52.130;21.270;2024-02-21T08:10:05;100850.28;;;20.24
76009;BMP280;64700;52.130;21.270;2024-02-21T08:12:33;100853.75;;;20.25
76009;BMP280;64700;52.130;21.270;2024-02-21T08:14:58;100846.38;;;20.25
76009;BMP280;64700;52.130;21.270;2024-02-21T08:17:23;100847.56;;;20.24
76009;BMP280;64700;52.130;21.270;2024-02-21T08:19:48;100847.13;;;20.26
76009;BMP280;64700;52.130;21.270;2024-02-21T08:22:14;100843.66;;;20.25
76009;BMP280;64700;52.130;21.270;2024-02-21T08:24:39;100836.69;;;20.24
76009;BMP280;64700;52.130;21.270;2024-02-21T08:27:04;100834.47;;;20.23
76009;BMP280;64700;52.130;21.270;2024-02-21T08:29:30;100824.34;;;20.23
76009;BMP280;64700;52.130;21.270;2024-02-21T08:31:55;100828.56;;;20.24
76009;BMP280;64700;52.130;21.270;2024-02-21T08:34:20;100823.59;;;20.23
76009;BMP280;64700;52.130;21.270;2024-02-21T08:36:46;100819.22;;;20.25
76009;BMP280;64700;52.130;21.270;2024-02-21T08:39:11;100822.38;;;20.24
76009;BMP280;64700;52.130;21.270;2024-02-21T08:41:36;100810.03;;;20.23
76009;BMP280;64700;52.130;21.270;2024-02-21T08:44:01;100821.47;;;20.27
76009;BMP280;64700;52.130;21.270;2024-02-21T08:46:27;100809.09;;;20.26
76009;BMP280;64700;52.130;21.270;2024-02-21T08:48:53;100813.03;;;20.25
76009;BMP280;64700;52.130;21.270;2024-02-21T08:51:18;100813.03;;;20.25
76009;BMP280;64700;52.130;21.270;2024-02-21T08:53:44;100809.09;;;20.26
76009;BMP280;64700;52.130;21.270;2024-02-21T08:56:10;100811.06;;;20.25
76009;BMP280;64700;52.130;21.270;2024-02-21T08:58:38;100804.44;;;20.26
76009;BMP280;64700;52.130;21.270;2024-02-21T09:01:04;100799.75;;;20.27
76009;BMP280;64700;52.130;21.270;2024-02-21T09:03:31;100805.63;;;20.25
76009;BMP280;64700;52.130;21.270;2024-02-21T09:05:56;100807.59;;;20.25
76009;BMP280;64700;52.130;21.270;2024-02-21T09:08:21;100803.69;;;20.26
76009;BMP280;64700;52.130;21.270;2024-02-21T09:10:47;100791.59;;;20.27
76009;BMP280;64700;52.130;21.270;2024-02-21T09:13:12;100795.53;;;20.26
76009;BMP280;64700;52.130;21.270;2024-02-21T09:15:37;100793.56;;;20.26
76009;BMP280;64700;52.130;21.270;2024-02-21T09:18:02;100804.44;;;20.26
76009;BMP280;64700;52.130;21.270;2024-02-21T09:20:28;100802.91;;;20.25
76009;BMP280;64700;52.130;21.270;2024-02-21T09:22:54;100799.75;;;20.27
76009;BMP280;64700;52.130;21.270;2024-02-21T09:25:19;100796.72;;;20.25
76009;BMP280;64700;52.130;21.270;2024-02-21T09:27:44;100799.44;;;20.25
76009;BMP280;64700;52.130;21.270;2024-02-21T09:30:10;100798.69;;;20.24
76009;BMP280;64700;52.130;21.270;2024-02-21T09:32:35;100800.19;;;20.25
76009;BMP280;64700;52.130;21.270;2024-02-21T09:35:01;100794.00;;;20.25
76009;BMP280;64700;52.130;21.270;2024-02-21T09:37:26;100798.69;;;20.24
76009;BMP280;64700;52.130;21.270;2024-02-21T09:39:51;100800.19;;;20.25
76009;BMP280;64700;52.130;21.270;2024-02-21T09:42:19;100790.53;;;20.24
76009;BMP280;64700;52.130;21.270;2024-02-21T09:44:44;100795.69;;;20.22
76009;BMP280;64700;52.130;21.270;2024-02-21T09:47:12;100798.69;;;20.24
76009;BMP280;64700;52.130;21.270;2024-02-21T09:49:40;100796.72;;;20.25
76009;BMP280;64700;52.130;21.270;2024-02-21T09:52:07;100790.25;;;20.22
76009;BMP280;64700;52.130;21.270;2024-02-21T09:54:36;100791.00;;;20.23
76009;BMP280;64700;52.130;21.270;2024-02-21T09:57:04;100780.91;;;20.23
76009;BMP280;64700;52.130;21.270;2024-02-21T09:59:31;100787.81;;;20.24
76009;BMP280;64700;52.130;21.270;2024-02-21T10:01:56;100784.06;;;20.22
76009;BMP280;64700;52.130;21.270;2024-02-21T10:04:22;100774.41;;;20.21
76009;BMP280;64700;52.130;21.270;2024-02-21T10:06:47;100781.34;;;20.22
76009;BMP280;64700;52.130;21.270;2024-02-21T10:11:47;100772.44;;;20.21
76009;BMP280;64700;52.130;21.270;2024-02-21T10:14:13;100768.97;;;20.21
76009;BMP280;64700;52.130;21.270;2024-02-21T10:16:39;100767.47;;;20.20
76009;BMP280;64700;52.130;21.270;2024-02-21T10:19:04;100759.63;;;20.22
76009;BMP280;64700;52.130;21.270;2024-02-21T10:21:29;100757.97;;;20.24
76009;BMP280;64700;52.130;21.270;2024-02-21T10:23:54;100756.75;;;20.25
76009;BMP280;64700;52.130;21.270;2024-02-21T10:26:20;100752.53;;;20.24
76009;BMP280;64700;52.130;21.270;2024-02-21T10:28:46;100748.59;;;20.25
76009;BMP280;64700;52.130;21.270;2024-02-21T10:31:20;100750.13;;;20.26
76009;BMP280;64700;52.130;21.270;2024-02-21T10:33:53;100744.22;;;20.28
76009;BMP280;64700;52.130;21.270;2024-02-21T10:36:18;100738.78;;;20.28
76009;BMP280;64700;52.130;21.270;2024-02-21T10:38:44;100743.78;;;20.29
76009;BMP280;64700;52.130;21.270;2024-02-21T10:41:09;100743.78;;;20.29
76009;BMP280;64700;52.130;21.270;2024-02-21T10:43:40;100734.41;;;20.30
76009;BMP280;64700;52.130;21.270;2024-02-21T10:46:08;100737.13;;;20.30
76009;BMP280;64700;52.130;21.270;2024-02-21T10:48:38;100729.75;;;20.31
76009;BMP280;64700;52.130;21.270;2024-02-21T10:56:28;100727.03;;;20.31
76009;BMP280;64700;52.130;21.270;2024-02-21T10:58:53;100719.63;;;20.31
76009;BMP280;64700;52.130;21.270;2024-02-21T11:01:20;100723.56;;;20.30
76009;BMP280;64700;52.130;21.270;2024-02-21T11:03:46;100720.06;;;19.75
76009;BMP280;64700;52.130;21.270;2024-02-21T11:06:12;100706.75;;;19.68
76009;BMP280;64700;52.130;21.270;2024-02-21T11:08:38;100711.34;;;19.89
76009;BMP280;64700;52.130;21.270;2024-02-21T11:11:04;100714.06;;;20.07
76009;BMP280;64700;52.130;21.270;2024-02-21T11:13:30;100703.19;;;20.17
76009;BMP280;64700;52.130;21.270;2024-02-21T11:16:05;100696.72;;;20.23
76009;BMP280;64700;52.130;21.270;2024-02-21T11:18:30;100691.13;;;20.27
76009;BMP280;64700;52.130;21.270;2024-02-21T11:20:55;100691.72;;;20.31
76009;BMP280;64700;52.130;21.270;2024-02-21T11:23:24;100689.75;;;20.31
76009;BMP280;64700;52.130;21.270;2024-02-21T11:25:50;100685.81;;;20.32
76009;BMP280;64700;52.130;21.270;2024-02-21T11:28:15;100678.75;;;20.35
76009;BMP280;64700;52.130;21.270;2024-02-21T11:30:50;100677.09;;;20.37
76009;BMP280;64700;52.130;21.270;2024-02-21T11:33:16;100675.13;;;20.38
76009;BMP280;64700;52.130;21.270;2024-02-21T11:35:41;100671.19;;;20.39
76009;BMP280;64700;52.130;21.270;2024-02-21T11:38:07;100671.19;;;20.39
76009;BMP280;64700;52.130;21.270;2024-02-21T11:40:33;100672.72;;;20.40
76009;BMP280;64700;52.130;21.270;2024-02-21T11:42:59;100671.19;;;20.39
76009;BMP280;64700;52.130;21.270;2024-02-21T11:45:25;100675.88;;;20.38
76009;BMP280;64700;52.130;21.270;2024-02-21T11:47:51;100669.69;;;20.38
76009;BMP280;64700;52.130;21.270;2024-02-21T11:50:16;100673.16;;;20.38
76009;BMP280;64700;52.130;21.270;2024-02-21T11:52:41;100665.47;;;20.37
76009;BMP280;64700;52.130;21.270;2024-02-21T11:55:06;100666.97;;;20.38
76009;BMP280;64700;52.130;21.270;2024-02-21T11:57:33;100668.94;;;20.37
76009;BMP280;64700;52.130;21.270;2024-02-21T12:00:10;100663.22;;;20.35
76009;BMP280;64700;52.130;21.270;2024-02-21T12:02:35;100668.94;;;20.37
76009;BMP280;64700;52.130;21.270;2024-02-21T12:05:00;100661.25;;;20.36
76009;BMP280;64700;52.130;21.270;2024-02-21T12:07:25;100664.72;;;20.36
76009;BMP280;64700;52.130;21.270;2024-02-21T12:09:53;100653.84;;;20.36
76009;BMP280;64700;52.130;21.270;2024-02-21T12:12:19;100656.56;;;20.36
76009;BMP280;64700;52.130;21.270;2024-02-21T12:14:44;100659.28;;;20.36
76009;BMP280;64700;52.130;21.270;2024-02-21T12:17:10;100644.97;;;20.36
76009;BMP280;64700;52.130;21.270;2024-02-21T12:19:35;100653.13;;;20.36
76009;BMP280;64700;52.130;21.270;2024-02-21T12:22:01;100651.59;;;20.35
76009;BMP280;64700;52.130;21.270;2024-02-21T12:24:27;100653.13;;;20.36
76009;BMP280;64700;52.130;21.270;2024-02-21T12:26:53;100644.81;;;20.39
76009;BMP280;64700;52.130;21.270;2024-02-21T12:29:21;100636.66;;;20.39
76009;BMP280;64700;52.130;21.270;2024-02-21T12:31:47;100633.75;;;20.43
76009;BMP280;64700;52.130;21.270;2024-02-21T12:34:14;100638.44;;;20.42
76009;BMP280;64700;52.130;21.270;2024-02-21T12:36:43;100631.81;;;20.43
76009;BMP280;64700;52.130;21.270;2024-02-21T12:39:08;100638.28;;;20.46
76009;BMP280;64700;52.130;21.270;2024-02-21T12:41:34;100621.84;;;20.40
76009;BMP280;64700;52.130;21.270;2024-02-21T12:44:01;100626.53;;;20.40
76009;BMP280;64700;52.130;21.270;2024-02-21T12:46:26;100627.44;;;20.37
76009;BMP280;64700;52.130;21.270;2024-02-21T12:48:52;100621.25;;;20.36
76009;BMP280;64700;52.130;21.270;2024-02-21T12:51:17;100611.63;;;20.35
76009;BMP280;64700;52.130;21.270;2024-02-21T12:53:46;100623.25;;;20.36
76009;BMP280;64700;52.130;21.270;2024-02-21T12:56:11;100602.38;;;20.33
76009;BMP280;64700;52.130;21.270;2024-02-21T12:58:37;100614.44;;;20.32
76009;BMP280;64700;52.130;21.270;2024-02-21T13:01:02;100608.28;;;20.31
76009;BMP280;64700;52.130;21.270;2024-02-21T13:03:27;100611.75;;;20.32
76009;BMP280;64700;52.130;21.270;2024-02-21T13:05:52;100604.81;;;20.31
76009;BMP280;64700;52.130;21.270;2024-02-21T13:08:18;100599.41;;;20.31
76009;BMP280;64700;52.130;21.270;2024-02-21T13:10:46;100596.69;;;20.31
76009;BMP280;64700;52.130;21.270;2024-02-21T13:13:13;100597.88;;;20.30
76009;BMP280;64700;52.130;21.270;2024-02-21T13:15:38;100596.38;;;20.29
76009;BMP280;64700;52.130;21.270;2024-02-21T13:18:07;100595.16;;;20.30
76009;BMP280;64700;52.130;21.270;2024-02-21T13:20:32;100592.91;;;20.28
76009;BMP280;64700;52.130;21.270;2024-02-21T13:22:58;100590.94;;;20.29
76009;BMP280;64700;52.130;21.270;2024-02-21T13:25:23;100591.69;;;20.29
76009;BMP280;64700;52.130;21.270;2024-02-21T13:27:48;100592.16;;;20.28
76009;BMP280;64700;52.130;21.270;2024-02-21T13:30:14;100583.28;;;20.27
76009;BMP280;64700;52.130;21.270;2024-02-21T13:32:40;100580.56;;;20.27
76009;BMP280;64700;52.130;21.270;2024-02-21T13:35:07;100576.31;;;20.26
76009;BMP280;64700;52.130;21.270;2024-02-21T13:37:33;100577.84;;;20.27
76009;BMP280;64700;52.130;21.270;2024-02-21T13:39:58;100567.44;;;20.26
76009;BMP280;64700;52.130;21.270;2024-02-21T13:42:23;100563.19;;;20.25